Time,TemperatureF,DewpointF,PressureIn,WindDirection,WindDirectionDegrees,WindSpeedMPH,WindSpeedGustMPH,Humidity,HourlyPrecipIn,Conditions,Clouds,dailyrainin,SolarRadiationWatts/m^2,SoftwareType,DateUTC
2013-07-04 00:02:00,73.0,71.0,30.12,SSE,159,0.0,0.0,92,0.00,,,0.35,0.000000,,2013-07-04 04:02:00,
2013-07-04 00:11:00,72.0,70.0,30.12,SSE,159,0.0,0.0,93,0.00,,,0.35,0.000000,,2013-07-04 04:11:00,
2013-07-04 00:22:00,72.0,70.0,30.12,SSE,159,0.0,0.0,94,0.00,,,0.35,0.000000,,2013-07-04 04:22:00,
2013-07-04 00:33:00,72.0,70.0,30.11,South,175,0.0,0.0,94,0.00,,,0.35,0.000000,,2013-07-04 04:33:00,
2013-07-04 00:43:00,72.0,70.0,30.11,SSW,194,0.0,1.0,95,0.00,,,0.35,0.000000,,2013-07-04 04:43:00,
2013-07-04 00:52:00,73.0,71.0,30.12,South,169,0.0,1.0,94,0.00,,,0.35,0.000000,,2013-07-04 04:52:00,
2013-07-04 01:02:00,73.0,71.0,30.12,South,176,0.0,1.0,94,0.01,,,0.36,0.000000,,2013-07-04 05:02:00,
2013-07-04 01:22:00,73.0,71.0,30.11,SW,225,0.0,3.0,94,0.01,,,0.36,0.000000,,2013-07-04 05:22:00,
2013-07-04 01:33:00,73.0,71.0,30.12,SW,234,3.0,8.0,94,0.02,,,0.37,0.000000,,2013-07-04 05:33:00,
2013-07-04 01:43:00,73.0,71.0,30.12,WSW,250,0.0,7.0,94,0.02,,,0.37,0.000000,,2013-07-04 05:43:00,
2013-07-04 01:52:00,73.0,71.0,30.12,WSW,250,0.0,0.0,94,0.03,,,0.38,0.000000,,2013-07-04 05:52:00,
2013-07-04 02:01:00,73.0,71.0,30.13,WSW,250,0.0,0.0,94,0.02,,,0.38,0.000000,,2013-07-04 06:01:00,
2013-07-04 02:11:00,72.0,70.0,30.12,WSW,250,0.0,0.0,94,0.02,,,0.38,0.000000,,2013-07-04 06:11:00,
2013-07-04 02:22:00,72.0,70.0,30.11,WSW,250,0.0,0.0,94,0.02,,,0.38,0.000000,,2013-07-04 06:22:00,
2013-07-04 02:34:00,72.0,70.0,30.11,WSW,250,0.0,0.0,95,0.01,,,0.38,0.000000,,2013-07-04 06:34:00,
2013-07-04 02:43:00,72.0,70.0,30.11,WSW,250,0.0,0.0,95,0.01,,,0.38,0.000000,,2013-07-04 06:43:00,
2013-07-04 02:53:00,71.0,69.0,30.11,SSE,148,0.0,0.0,95,0.00,,,0.38,0.000000,,2013-07-04 06:53:00,
2013-07-04 03:02:00,71.0,70.0,30.11,SSE,148,0.0,1.0,96,0.00,,,0.38,0.000000,,2013-07-04 07:02:00,
2013-07-04 03:12:00,71.0,70.0,30.11,SE,145,0.0,1.0,96,0.00,,,0.38,0.000000,,2013-07-04 07:12:00,
2013-07-04 03:22:00,71.0,70.0,30.11,SE,130,0.0,1.0,96,0.00,,,0.38,0.000000,,2013-07-04 07:22:00,
2013-07-04 03:43:00,71.0,70.0,30.11,WSW,244,0.0,1.0,96,0.00,,,0.38,0.000000,,2013-07-04 07:43:00,
2013-07-04 03:52:00,71.0,70.0,30.11,WSW,244,0.0,0.0,96,0.00,,,0.38,0.000000,,2013-07-04 07:52:00,
2013-07-04 04:02:00,71.0,70.0,30.11,WSW,244,0.0,0.0,96,0.00,,,0.38,0.000000,,2013-07-04 08:02:00,
2013-07-04 04:11:00,71.0,70.0,30.10,WSW,244,0.0,0.0,96,0.00,,,0.38,0.000000,,2013-07-04 08:11:00,
2013-07-04 04:22:00,71.0,70.0,30.10,WSW,244,0.0,0.0,96,0.00,,,0.38,0.000000,,2013-07-04 08:22:00,
2013-07-04 04:33:00,70.0,69.0,30.11,WSW,244,0.0,0.0,96,0.00,,,0.38,0.000000,,2013-07-04 08:33:00,
2013-07-04 04:42:00,70.0,69.0,30.10,WSW,244,0.0,0.0,96,0.00,,,0.38,0.000000,,2013-07-04 08:42:00,
2013-07-04 04:53:00,70.0,69.0,30.10,WSW,244,0.0,0.0,97,0.00,,,0.38,0.000000,,2013-07-04 08:53:00,
2013-07-04 05:02:00,70.0,69.0,30.11,SSE,157,0.0,1.0,97,0.00,,,0.38,0.000000,,2013-07-04 09:02:00,
2013-07-04 05:11:00,70.0,69.0,30.11,South,178,0.0,0.0,97,0.00,,,0.38,0.000000,,2013-07-04 09:11:00,
2013-07-04 05:22:00,70.0,69.0,30.11,South,171,0.0,5.0,97,0.00,,,0.38,0.000000,,2013-07-04 09:22:00,
2013-07-04 05:32:00,71.0,70.0,30.11,SW,225,0.0,6.0,97,0.00,,,0.38,0.000000,,2013-07-04 09:32:00,
2013-07-04 05:42:00,71.0,70.0,30.11,SW,226,0.0,4.0,97,0.00,,,0.38,0.000000,,2013-07-04 09:42:00,
2013-07-04 05:52:00,71.0,70.0,30.11,SW,222,1.0,4.0,97,0.00,,,0.38,0.000000,,2013-07-04 09:52:00,
2013-07-04 06:11:00,71.0,70.0,30.12,South,170,0.0,4.0,96,0.00,,,0.38,0.000000,,2013-07-04 10:11:00,
2013-07-04 06:22:00,71.0,70.0,30.12,SW,223,0.0,4.0,96,0.00,,,0.38,5.000000,,2013-07-04 10:22:00,
2013-07-04 06:34:00,71.0,70.0,30.12,SSW,205,1.0,5.0,96,0.00,,,0.38,9.000000,,2013-07-04 10:34:00,
2013-07-04 06:43:00,71.0,70.0,30.12,SSW,209,0.0,3.0,96,0.00,,,0.38,12.000000,,2013-07-04 10:43:00,
2013-07-04 06:53:00,71.0,70.0,30.12,SSW,193,0.0,5.0,96,0.00,,,0.38,25.000000,,2013-07-04 10:53:00,
2013-07-04 07:02:00,71.0,70.0,30.12,SSW,208,3.0,3.0,96,0.00,,,0.38,28.000000,,2013-07-04 11:02:00,
2013-07-04 07:12:00,71.0,70.0,30.12,SW,215,0.0,3.0,96,0.00,,,0.38,49.000000,,2013-07-04 11:12:00,
2013-07-04 07:22:00,71.0,70.0,30.12,South,190,3.0,7.0,96,0.00,,,0.38,58.000000,,2013-07-04 11:22:00,
2013-07-04 07:34:00,71.0,69.0,30.12,South,190,0.0,2.0,95,0.00,,,0.38,72.000000,,2013-07-04 11:34:00,
2013-07-04 07:43:00,72.0,70.0,30.13,SW,236,0.0,2.0,95,0.00,,,0.38,63.000000,,2013-07-04 11:43:00,
2013-07-04 07:53:00,72.0,70.0,30.13,South,186,1.0,7.0,95,0.00,,,0.38,97.000000,,2013-07-04 11:53:00,
2013-07-04 08:22:00,73.0,71.0,30.15,SSW,196,0.0,7.0,93,0.00,,,0.38,69.000000,,2013-07-04 12:22:00,
2013-07-04 08:33:00,73.0,71.0,30.15,SW,235,1.0,7.0,93,0.00,,,0.38,74.000000,,2013-07-04 12:33:00,
2013-07-04 08:43:00,73.0,71.0,30.16,SW,236,1.0,5.0,93,0.00,,,0.38,95.000000,,2013-07-04 12:43:00,
2013-07-04 08:52:00,73.0,71.0,30.16,SW,236,2.0,7.0,92,0.00,,,0.38,123.000000,,2013-07-04 12:52:00,
2013-07-04 09:12:00,73.0,70.0,30.17,SSW,212,3.0,12.0,91,0.00,,,0.38,53.000000,,2013-07-04 13:12:00,
2013-07-04 09:23:00,73.0,70.0,30.17,SW,229,0.0,11.0,91,0.00,,,0.38,63.000000,,2013-07-04 13:23:00,
2013-07-04 09:33:00,73.0,71.0,30.17,WSW,246,3.0,9.0,92,0.00,,,0.38,93.000000,,2013-07-04 13:33:00,
2013-07-04 09:43:00,73.0,71.0,30.17,WSW,240,0.0,9.0,92,0.00,,,0.38,120.000000,,2013-07-04 13:43:00,
2013-07-04 09:53:00,72.0,70.0,30.17,SW,236,0.0,7.0,92,0.00,,,0.38,139.000000,,2013-07-04 13:53:00,
2013-07-04 10:02:00,72.0,70.0,30.17,SW,221,0.0,7.0,94,0.00,,,0.38,139.000000,,2013-07-04 14:02:00,
2013-07-04 10:12:00,72.0,70.0,30.17,West,266,1.0,10.0,94,0.00,,,0.38,113.000000,,2013-07-04 14:12:00,
2013-07-04 10:22:00,72.0,70.0,30.17,SSW,204,3.0,9.0,93,0.00,,,0.38,125.000000,,2013-07-04 14:22:00,
2013-07-04 10:33:00,72.0,70.0,30.16,SSW,204,0.0,6.0,94,0.01,,,0.39,162.000000,,2013-07-04 14:33:00,
2013-07-04 10:43:00,71.0,69.0,30.16,WNW,298,0.0,5.0,93,0.01,,,0.39,246.000000,,2013-07-04 14:43:00,
2013-07-04 10:53:00,71.0,69.0,30.16,SSW,200,1.0,7.0,93,0.01,,,0.39,169.000000,,2013-07-04 14:53:00,
2013-07-04 11:02:00,71.0,69.0,30.16,WSW,254,2.0,6.0,93,0.01,,,0.39,336.000000,,2013-07-04 15:02:00,
2013-07-04 11:11:00,72.0,70.0,30.16,WSW,254,0.0,5.0,93,0.01,,,0.39,295.000000,,2013-07-04 15:11:00,
2013-07-04 11:23:00,72.0,70.0,30.15,SSW,196,0.0,1.0,93,0.01,,,0.39,410.000000,,2013-07-04 15:23:00,
2013-07-04 11:33:00,73.0,70.0,30.15,SSW,199,1.0,9.0,91,0.00,,,0.39,352.000000,,2013-07-04 15:33:00,
2013-07-04 11:43:00,73.0,70.0,30.15,WSW,239,0.0,7.0,91,0.00,,,0.39,388.000000,,2013-07-04 15:43:00,
2013-07-04 11:52:00,74.0,71.0,30.15,South,187,3.0,5.0,90,0.00,,,0.39,195.000000,,2013-07-04 15:52:00,
2013-07-04 12:02:00,74.0,71.0,30.16,WSW,240,0.0,9.0,89,0.00,,,0.39,171.000000,,2013-07-04 16:02:00,
2013-07-04 12:11:00,73.0,70.0,30.15,SSE,149,0.0,5.0,89,0.00,,,0.39,304.000000,,2013-07-04 16:11:00,
2013-07-04 12:22:00,74.0,71.0,30.15,SSW,192,0.0,5.0,90,0.00,,,0.39,352.000000,,2013-07-04 16:22:00,
2013-07-04 12:33:00,74.0,71.0,30.15,SE,145,0.0,4.0,89,0.00,,,0.39,443.000000,,2013-07-04 16:33:00,
2013-07-04 12:43:00,75.0,72.0,30.15,SE,138,0.0,6.0,89,0.00,,,0.39,700.000000,,2013-07-04 16:43:00,
2013-07-04 12:52:00,75.0,71.0,30.14,SSE,150,0.0,6.0,87,0.00,,,0.39,640.000000,,2013-07-04 16:52:00,
2013-07-04 13:02:00,76.0,71.0,30.15,WSW,240,2.0,11.0,85,0.00,,,0.39,547.000000,,2013-07-04 17:02:00,
2013-07-04 13:12:00,76.0,71.0,30.14,SW,221,0.0,4.0,85,0.00,,,0.39,979.000000,,2013-07-04 17:12:00,
2013-07-04 13:22:00,77.0,72.0,30.14,SW,235,1.0,8.0,85,0.00,,,0.39,963.000000,,2013-07-04 17:22:00,
2013-07-04 13:34:00,78.0,73.0,30.15,SSW,213,0.0,10.0,85,0.00,,,0.39,1069.000000,,2013-07-04 17:34:00,
2013-07-04 13:43:00,78.0,72.0,30.14,West,267,5.0,11.0,83,0.00,,,0.39,981.000000,,2013-07-04 17:43:00,
2013-07-04 13:53:00,78.0,72.0,30.14,SW,222,3.0,15.0,81,0.00,,,0.39,1055.000000,,2013-07-04 17:53:00,
2013-07-04 14:01:00,79.0,73.0,30.14,South,186,7.0,12.0,81,0.00,,,0.39,998.000000,,2013-07-04 18:01:00,
2013-07-04 14:11:00,79.0,73.0,30.14,West,269,5.0,12.0,81,0.00,,,0.39,740.000000,,2013-07-04 18:11:00,
2013-07-04 14:22:00,79.0,73.0,30.13,SW,226,4.0,12.0,81,0.00,,,0.39,543.000000,,2013-07-04 18:22:00,
2013-07-04 14:33:00,79.0,73.0,30.14,WSW,246,1.0,11.0,82,0.00,,,0.39,821.000000,,2013-07-04 18:33:00,
2013-07-04 14:43:00,80.0,73.0,30.14,SW,231,2.0,11.0,80,0.00,,,0.39,1030.000000,,2013-07-04 18:43:00,
2013-07-04 14:52:00,81.0,74.0,30.13,SSW,209,1.0,10.0,79,0.00,,,0.39,795.000000,,2013-07-04 18:52:00,
2013-07-04 15:02:00,81.0,72.0,30.13,South,188,1.0,10.0,75,0.00,,,0.39,1060.000000,,2013-07-04 19:02:00,
2013-07-04 15:12:00,81.0,72.0,30.12,SW,225,5.0,10.0,75,0.00,,,0.39,958.000000,,2013-07-04 19:12:00,
2013-07-04 15:22:00,81.0,73.0,30.12,South,172,1.0,13.0,77,0.00,,,0.39,930.000000,,2013-07-04 19:22:00,
2013-07-04 15:33:00,81.0,72.0,30.12,SSW,207,1.0,12.0,73,0.00,,,0.39,907.000000,,2013-07-04 19:33:00,
2013-07-04 15:43:00,82.0,72.0,30.12,SW,217,5.0,7.0,71,0.00,,,0.39,889.000000,,2013-07-04 19:43:00,
2013-07-04 15:53:00,81.0,70.0,30.12,WSW,245,3.0,15.0,70,0.00,,,0.39,896.000000,,2013-07-04 19:53:00,
2013-07-04 16:02:00,82.0,71.0,30.11,West,273,0.0,15.0,70,0.00,,,0.39,865.000000,,2013-07-04 20:02:00,
2013-07-04 16:11:00,82.0,72.0,30.11,WSW,252,2.0,11.0,71,0.00,,,0.39,886.000000,,2013-07-04 20:11:00,
2013-07-04 16:22:00,82.0,71.0,30.12,WNW,292,2.0,16.0,69,0.00,,,0.39,893.000000,,2013-07-04 20:22:00,
2013-07-04 16:34:00,82.0,71.0,30.12,WNW,292,2.0,16.0,69,0.00,,,0.39,893.000000,,2013-07-04 20:34:00,
2013-07-04 16:42:00,81.0,72.0,30.11,SW,219,0.0,10.0,73,0.00,,,0.39,450.000000,,2013-07-04 20:42:00,
2013-07-04 16:53:00,81.0,72.0,30.11,WNW,284,3.0,10.0,73,0.00,,,0.39,425.000000,,2013-07-04 20:53:00,
2013-07-04 17:01:00,82.0,72.0,30.11,WSW,248,0.0,13.0,73,0.00,,,0.39,578.000000,,2013-07-04 21:01:00,
2013-07-04 17:12:00,82.0,72.0,30.11,SSW,198,0.0,10.0,72,0.00,,,0.39,404.000000,,2013-07-04 21:12:00,
2013-07-04 17:22:00,81.0,71.0,30.11,South,190,6.0,13.0,71,0.00,,,0.39,302.000000,,2013-07-04 21:22:00,
2013-07-04 17:32:00,81.0,72.0,30.10,WSW,255,1.0,12.0,74,0.00,,,0.39,631.000000,,2013-07-04 21:32:00,
2013-07-04 17:43:00,82.0,72.0,30.10,West,260,3.0,13.0,71,0.00,,,0.39,227.000000,,2013-07-04 21:43:00,
2013-07-04 17:53:00,81.0,71.0,30.10,WSW,238,0.0,10.0,71,0.00,,,0.39,199.000000,,2013-07-04 21:53:00,
2013-07-04 18:02:00,81.0,71.0,30.10,WSW,238,0.0,14.0,72,0.00,,,0.39,294.000000,,2013-07-04 22:02:00,
2013-07-04 18:12:00,81.0,72.0,30.10,SSW,210,0.0,7.0,73,0.00,,,0.39,195.000000,,2013-07-04 22:12:00,
2013-07-04 18:22:00,80.0,71.0,30.09,SW,234,2.0,7.0,73,0.00,,,0.39,167.000000,,2013-07-04 22:22:00,
2013-07-04 18:33:00,80.0,71.0,30.09,WSW,242,0.0,9.0,73,0.00,,,0.39,155.000000,,2013-07-04 22:33:00,
2013-07-04 18:43:00,80.0,71.0,30.09,WSW,256,0.0,5.0,74,0.00,,,0.39,207.000000,,2013-07-04 22:43:00,
2013-07-04 18:52:00,81.0,72.0,30.09,WNW,294,3.0,6.0,73,0.00,,,0.39,522.000000,,2013-07-04 22:52:00,
2013-07-04 19:01:00,82.0,72.0,30.09,WNW,283,0.0,5.0,71,0.00,,,0.39,431.000000,,2013-07-04 23:01:00,
2013-07-04 19:12:00,83.0,72.0,30.09,NW,309,1.0,10.0,69,0.00,,,0.04,408.000000,,2013-07-04 23:12:00,
2013-07-04 19:23:00,83.0,72.0,30.09,West,275,3.0,10.0,70,0.00,,,0.04,357.000000,,2013-07-04 23:23:00,
2013-07-04 19:33:00,82.0,71.0,30.10,WSW,250,0.0,8.0,70,0.00,,,0.04,366.000000,,2013-07-04 23:33:00,
2013-07-04 19:43:00,82.0,72.0,30.09,SSW,204,1.0,12.0,71,0.00,,,0.04,130.000000,,2013-07-04 23:43:00,
2013-07-04 19:52:00,81.0,72.0,30.10,West,274,1.0,8.0,73,0.00,,,0.04,100.000000,,2013-07-04 23:52:00,
2013-07-04 20:01:00,80.0,71.0,30.10,SSW,194,2.0,4.0,73,0.00,,,0.04,172.000000,,2013-07-05 00:01:00,
2013-07-04 20:12:00,80.0,71.0,30.10,SW,219,0.0,7.0,73,0.00,,,0.04,141.000000,,2013-07-05 00:12:00,
2013-07-04 20:22:00,80.0,71.0,30.10,SW,224,0.0,7.0,74,0.00,,,0.04,32.000000,,2013-07-05 00:22:00,
2013-07-04 20:32:00,79.0,70.0,30.11,SW,223,1.0,9.0,75,0.00,,,0.04,67.000000,,2013-07-05 00:32:00,
2013-07-04 20:43:00,79.0,71.0,30.10,SW,221,0.0,8.0,76,0.00,,,0.04,35.000000,,2013-07-05 00:43:00,
2013-07-04 20:52:00,79.0,71.0,30.10,South,177,0.0,7.0,77,0.00,,,0.04,25.000000,,2013-07-05 00:52:00,
2013-07-04 21:01:00,79.0,71.0,30.10,South,177,0.0,7.0,77,0.00,,,0.04,25.000000,,2013-07-05 01:01:00,
2013-07-04 21:11:00,78.0,71.0,30.10,SSW,192,0.0,4.0,80,0.00,,,0.04,12.000000,,2013-07-05 01:11:00,
2013-07-04 21:22:00,78.0,71.0,30.10,SSW,192,0.0,4.0,80,0.00,,,0.04,12.000000,,2013-07-05 01:22:00,
2013-07-04 21:32:00,77.0,71.0,30.10,WSW,252,0.0,3.0,81,0.00,,,0.04,5.000000,,2013-07-05 01:32:00,
2013-07-04 21:42:00,77.0,71.0,30.10,WSW,252,0.0,3.0,81,0.00,,,0.04,5.000000,,2013-07-05 01:42:00,
2013-07-04 21:52:00,75.0,70.0,30.10,SSW,213,0.0,1.0,85,0.00,,,0.04,0.000000,,2013-07-05 01:52:00,
2013-07-04 22:02:00,75.0,71.0,30.10,SSW,204,0.0,5.0,86,0.00,,,0.04,0.000000,,2013-07-05 02:02:00,
2013-07-04 22:11:00,75.0,71.0,30.10,SSW,204,0.0,5.0,86,0.00,,,0.04,0.000000,,2013-07-05 02:11:00,
2013-07-04 22:22:00,75.0,71.0,30.10,SSW,204,0.0,5.0,86,0.00,,,0.04,0.000000,,2013-07-05 02:22:00,
2013-07-04 22:32:00,74.0,70.0,30.10,SSW,203,0.0,6.0,87,0.00,,,0.04,0.000000,,2013-07-05 02:32:00,
2013-07-04 22:42:00,74.0,70.0,30.10,SSW,203,0.0,6.0,87,0.00,,,0.04,0.000000,,2013-07-05 02:42:00,
2013-07-04 22:53:00,74.0,70.0,30.11,South,182,0.0,4.0,88,0.00,,,0.04,0.000000,,2013-07-05 02:53:00,
2013-07-04 23:02:00,73.0,70.0,30.11,SW,225,0.0,1.0,90,0.00,,,0.04,0.000000,,2013-07-05 03:02:00,
2013-07-04 23:11:00,73.0,70.0,30.11,SW,225,0.0,1.0,90,0.00,,,0.04,0.000000,,2013-07-05 03:11:00,
2013-07-04 23:22:00,73.0,70.0,30.11,SW,225,0.0,1.0,90,0.00,,,0.04,0.000000,,2013-07-05 03:22:00,
2013-07-04 23:33:00,73.0,70.0,30.11,South,190,0.0,3.0,90,0.00,,,0.04,0.000000,,2013-07-05 03:33:00,
2013-07-04 23:42:00,73.0,70.0,30.11,South,190,0.0,3.0,90,0.00,,,0.04,0.000000,,2013-07-05 03:42:00,
2013-07-04 23:52:00,72.0,69.0,30.11,SSW,202,0.0,4.0,91,0.00,,,0.04,0.000000,,2013-07-05 03:52:00,